sensor_id;sensor_type;location;lat;lon;timestamp;P1;durP1;ratioP1;P2;durP2;ratioP2
5587;SDS011;2816;49.778;9.986;2023-05-07T00:00:46;5.00;;;2.60;;
5587;SDS011;2816;49.778;9.986;2023-05-07T00:03:14;4.13;;;2.50;;
5587;SDS011;2816;49.778;9.986;2023-05-07T00:05:42;3.27;;;2.97;;
5587;SDS011;2816;49.778;9.986;2023-05-07T00:08:10;4.90;;;2.77;;
5587;SDS011;2816;49.778;9.986;2023-05-07T00:10:37;4.53;;;2.90;;
5587;SDS011;2816;49.778;9.986;2023-05-07T00:13:04;3.40;;;2.63;;
5587;SDS011;2816;49.778;9.986;2023-05-07T00:15:31;4.63;;;2.53;;
5587;SDS011;2816;49.778;9.986;2023-05-07T00:17:58;5.40;;;2.90;;
5587;SDS011;2816;49.778;9.986;2023-05-07T00:20:24;4.50;;;2.67;;
5587;SDS011;2816;49.778;9.986;2023-05-07T00:22:53;3.00;;;2.70;;
5587;SDS011;2816;49.778;9.986;2023-05-07T00:25:20;2.90;;;2.67;;
5587;SDS011;2816;49.778;9.986;2023-05-07T00:27:47;3.53;;;2.53;;
5587;SDS011;2816;49.778;9.986;2023-05-07T00:30:14;5.80;;;2.63;;
5587;SDS011;2816;49.778;9.986;2023-05-07T00:32:41;2.40;;;2.17;;
5587;SDS011;2816;49.778;9.986;2023-05-07T00:35:10;7.30;;;2.87;;
5587;SDS011;2816;49.778;9.986;2023-05-07T00:37:37;2.70;;;2.50;;
5587;SDS011;2816;49.778;9.986;2023-05-07T00:40:06;3.10;;;2.80;;
5587;SDS011;2816;49.778;9.986;2023-05-07T00:42:34;3.33;;;2.43;;
5587;SDS011;2816;49.778;9.986;2023-05-07T00:45:01;4.30;;;2.80;;
5587;SDS011;2816;49.778;9.986;2023-05-07T00:47:29;6.50;;;2.67;;
5587;SDS011;2816;49.778;9.986;2023-05-07T00:49:56;3.03;;;2.73;;
5587;SDS011;2816;49.778;9.986;2023-05-07T00:52:23;3.03;;;2.30;;
5587;SDS011;2816;49.778;9.986;2023-05-07T00:54:52;4.27;;;2.57;;
5587;SDS011;2816;49.778;9.986;2023-05-07T00:57:21;2.70;;;2.50;;
5587;SDS011;2816;49.778;9.986;2023-05-07T00:59:50;4.47;;;2.30;;
5587;SDS011;2816;49.778;9.986;2023-05-07T01:02:18;4.30;;;2.67;;
5587;SDS011;2816;49.778;9.986;2023-05-07T01:04:45;3.37;;;2.40;;
5587;SDS011;2816;49.778;9.986;2023-05-07T01:07:11;3.53;;;2.43;;
5587;SDS011;2816;49.778;9.986;2023-05-07T01:09:39;3.60;;;2.40;;
5587;SDS011;2816;49.778;9.986;2023-05-07T01:12:06;2.80;;;2.53;;
5587;SDS011;2816;49.778;9.986;2023-05-07T01:14:35;3.00;;;2.27;;
5587;SDS011;2816;49.778;9.986;2023-05-07T01:17:02;3.53;;;2.30;;
5587;SDS011;2816;49.778;9.986;2023-05-07T01:19:29;2.80;;;2.43;;
5587;SDS011;2816;49.778;9.986;2023-05-07T01:22:01;4.33;;;2.43;;
5587;SDS011;2816;49.778;9.986;2023-05-07T01:24:32;2.93;;;2.73;;
5587;SDS011;2816;49.778;9.986;2023-05-07T01:26:59;2.73;;;2.20;;
5587;SDS011;2816;49.778;9.986;2023-05-07T01:29:27;4.63;;;3.00;;
5587;SDS011;2816;49.778;9.986;2023-05-07T01:31:55;6.13;;;2.30;;
5587;SDS011;2816;49.778;9.986;2023-05-07T01:34:24;4.37;;;2.57;;
5587;SDS011;2816;49.778;9.986;2023-05-07T01:36:53;2.30;;;2.10;;
5587;SDS011;2816;49.778;9.986;2023-05-07T01:39:23;2.90;;;2.70;;
5587;SDS011;2816;49.778;9.986;2023-05-07T01:41:52;3.40;;;2.67;;
5587;SDS011;2816;49.778;9.986;2023-05-07T01:44:20;3.27;;;2.20;;
5587;SDS011;2816;49.778;9.986;2023-05-07T01:46:48;9.10;;;2.40;;
5587;SDS011;2816;49.778;9.986;2023-05-07T01:49:15;3.93;;;2.50;;
5587;SDS011;2816;49.778;9.986;2023-05-07T01:51:43;3.07;;;2.60;;
5587;SDS011;2816;49.778;9.986;2023-05-07T01:54:10;3.30;;;2.40;;
5587;SDS011;2816;49.778;9.986;2023-05-07T01:56:37;2.43;;;2.27;;
5587;SDS011;2816;49.778;9.986;2023-05-07T01:59:05;3.67;;;2.27;;
5587;SDS011;2816;49.778;9.986;2023-05-07T02:01:32;5.73;;;2.40;;
5587;SDS011;2816;49.778;9.986;2023-05-07T02:03:59;8.30;;;2.63;;
5587;SDS011;2816;49.778;9.986;2023-05-07T02:06:26;3.50;;;2.53;;
5587;SDS011;2816;49.778;9.986;2023-05-07T02:08:53;2.67;;;2.30;;
5587;SDS011;2816;49.778;9.986;2023-05-07T02:11:20;2.60;;;2.33;;
5587;SDS011;2816;49.778;9.986;2023-05-07T02:13:47;2.87;;;2.30;;
5587;SDS011;2816;49.778;9.986;2023-05-07T02:16:15;3.27;;;2.87;;
5587;SDS011;2816;49.778;9.986;2023-05-07T02:18:42;8.70;;;3.13;;
5587;SDS011;2816;49.778;9.986;2023-05-07T02:21:09;5.10;;;2.60;;
5587;SDS011;2816;49.778;9.986;2023-05-07T02:23:36;4.30;;;2.70;;
5587;SDS011;2816;49.778;9.986;2023-05-07T02:26:03;6.50;;;3.17;;
5587;SDS011;2816;49.778;9.986;2023-05-07T02:28:30;3.10;;;2.30;;
5587;SDS011;2816;49.778;9.986;2023-05-07T02:31:00;2.53;;;2.20;;
5587;SDS011;2816;49.778;9.986;2023-05-07T02:33:29;3.17;;;2.53;;
5587;SDS011;2816;49.778;9.986;2023-05-07T02:35:56;3.87;;;2.60;;
5587;SDS011;2816;49.778;9.986;2023-05-07T02:38:30;5.13;;;2.70;;
5587;SDS011;2816;49.778;9.986;2023-05-07T02:40:57;5.90;;;2.40;;
5587;SDS011;2816;49.778;9.986;2023-05-07T02:43:24;2.40;;;1.97;;
5587;SDS011;2816;49.778;9.986;2023-05-07T02:45:59;4.30;;;2.77;;
5587;SDS011;2816;49.778;9.986;2023-05-07T02:48:27;8.33;;;2.73;;
5587;SDS011;2816;49.778;9.986;2023-05-07T02:50:56;4.07;;;2.87;;
5587;SDS011;2816;49.778;9.986;2023-05-07T02:53:22;8.67;;;3.10;;
5587;SDS011;2816;49.778;9.986;2023-05-07T02:55:51;6.47;;;2.83;;
5587;SDS011;2816;49.778;9.986;2023-05-07T02:58:19;3.40;;;2.70;;
5587;SDS011;2816;49.778;9.986;2023-05-07T03:00:46;4.20;;;2.63;;
5587;SDS011;2816;49.778;9.986;2023-05-07T03:03:13;3.40;;;2.60;;
5587;SDS011;2816;49.778;9.986;2023-05-07T03:05:41;3.60;;;2.73;;
5587;SDS011;2816;49.778;9.986;2023-05-07T03:08:09;2.60;;;2.40;;
5587;SDS011;2816;49.778;9.986;2023-05-07T03:10:36;3.90;;;2.80;;
5587;SDS011;2816;49.778;9.986;2023-05-07T03:13:04;6.90;;;2.80;;
5587;SDS011;2816;49.778;9.986;2023-05-07T03:15:31;7.53;;;3.40;;
5587;SDS011;2816;49.778;9.986;2023-05-07T03:17:58;3.23;;;2.93;;
5587;SDS011;2816;49.778;9.986;2023-05-07T03:20:25;4.30;;;3.13;;
5587;SDS011;2816;49.778;9.986;2023-05-07T03:22:53;4.70;;;2.80;;
5587;SDS011;2816;49.778;9.986;2023-05-07T03:25:20;3.30;;;2.60;;
5587;SDS011;2816;49.778;9.986;2023-05-07T03:27:47;3.93;;;2.93;;
5587;SDS011;2816;49.778;9.986;2023-05-07T03:30:14;2.80;;;2.60;;
5587;SDS011;2816;49.778;9.986;2023-05-07T03:32:41;3.40;;;2.83;;
5587;SDS011;2816;49.778;9.986;2023-05-07T03:35:08;3.00;;;2.70;;
5587;SDS011;2816;49.778;9.986;2023-05-07T03:37:35;3.10;;;2.80;;
5587;SDS011;2816;49.778;9.986;2023-05-07T03:40:03;3.30;;;3.10;;
5587;SDS011;2816;49.778;9.986;2023-05-07T03:42:31;3.43;;;3.07;;
5587;SDS011;2816;49.778;9.986;2023-05-07T03:44:58;2.80;;;2.57;;
5587;SDS011;2816;49.778;9.986;2023-05-07T03:47:25;3.40;;;3.00;;
5587;SDS011;2816;49.778;9.986;2023-05-07T03:49:52;2.57;;;2.37;;
5587;SDS011;2816;49.778;9.986;2023-05-07T03:52:19;3.33;;;3.00;;
5587;SDS011;2816;49.778;9.986;2023-05-07T03:54:50;4.53;;;3.57;;
5587;SDS011;2816;49.778;9.986;2023-05-07T03:57:20;3.63;;;3.27;;
5587;SDS011;2816;49.778;9.986;2023-05-07T03:59:47;5.30;;;3.30;;
5587;SDS011;2816;49.778;9.986;2023-05-07T04:02:13;3.50;;;3.20;;
5587;SDS011;2816;49.778;9.986;2023-05-07T04:04:40;3.13;;;2.87;;
5587;SDS011;2816;49.778;9.986;2023-05-07T04:07:07;4.53;;;3.00;;
5587;SDS011;2816;49.778;9.986;2023-05-07T04:09:35;4.37;;;2.93;;
5587;SDS011;2816;49.778;9.986;2023-05-07T04:12:02;5.00;;;3.30;;
5587;SDS011;2816;49.778;9.986;2023-05-07T04:14:30;3.87;;;3.57;;
5587;SDS011;2816;49.778;9.986;2023-05-07T04:16:58;4.47;;;3.90;;
5587;SDS011;2816;49.778;9.986;2023-05-07T04:19:25;4.20;;;3.80;;
5587;SDS011;2816;49.778;9.986;2023-05-07T04:21:52;4.10;;;3.70;;
5587;SDS011;2816;49.778;9.986;2023-05-07T04:24:19;4.90;;;4.00;;
5587;SDS011;2816;49.778;9.986;2023-05-07T04:26:45;3.80;;;3.40;;
5587;SDS011;2816;49.778;9.986;2023-05-07T04:29:12;4.60;;;3.83;;
5587;SDS011;2816;49.778;9.986;2023-05-07T04:31:41;7.73;;;3.83;;
5587;SDS011;2816;49.778;9.986;2023-05-07T04:34:09;5.87;;;4.43;;
5587;SDS011;2816;49.778;9.986;2023-05-07T04:36:36;4.53;;;4.13;;
5587;SDS011;2816;49.778;9.986;2023-05-07T04:39:03;6.40;;;5.40;;
5587;SDS011;2816;49.778;9.986;2023-05-07T04:41:31;8.63;;;5.07;;
5587;SDS011;2816;49.778;9.986;2023-05-07T04:43:58;5.27;;;4.77;;
5587;SDS011;2816;49.778;9.986;2023-05-07T04:46:25;6.80;;;5.40;;
5587;SDS011;2816;49.778;9.986;2023-05-07T04:48:53;6.33;;;5.70;;
5587;SDS011;2816;49.778;9.986;2023-05-07T04:51:20;5.90;;;5.40;;
5587;SDS011;2816;49.778;9.986;2023-05-07T04:53:47;6.40;;;5.70;;
5587;SDS011;2816;49.778;9.986;2023-05-07T04:56:14;13.43;;;6.60;;
5587;SDS011;2816;49.778;9.986;2023-05-07T04:58:41;6.17;;;5.30;;
5587;SDS011;2816;49.778;9.986;2023-05-07T05:01:08;7.97;;;5.27;;
5587;SDS011;2816;49.778;9.986;2023-05-07T05:03:35;7.03;;;6.33;;
5587;SDS011;2816;49.778;9.986;2023-05-07T05:06:04;9.97;;;6.40;;
5587;SDS011;2816;49.778;9.986;2023-05-07T05:08:31;7.67;;;6.30;;
5587;SDS011;2816;49.778;9.986;2023-05-07T05:10:58;9.20;;;6.40;;
5587;SDS011;2816;49.778;9.986;2023-05-07T05:13:26;8.83;;;6.20;;
5587;SDS011;2816;49.778;9.986;2023-05-07T05:15:53;9.17;;;6.73;;
5587;SDS011;2816;49.778;9.986;2023-05-07T05:18:21;8.40;;;6.43;;
5587;SDS011;2816;49.778;9.986;2023-05-07T05:20:47;7.30;;;6.60;;
5587;SDS011;2816;49.778;9.986;2023-05-07T05:23:16;7.60;;;6.17;;
5587;SDS011;2816;49.778;9.986;2023-05-07T05:25:43;10.10;;;7.10;;
5587;SDS011;2816;49.778;9.986;2023-05-07T05:28:09;9.13;;;6.53;;
5587;SDS011;2816;49.778;9.986;2023-05-07T05:30:36;11.80;;;6.60;;
5587;SDS011;2816;49.778;9.986;2023-05-07T05:33:03;7.67;;;6.87;;
5587;SDS011;2816;49.778;9.986;2023-05-07T05:35:30;9.20;;;7.20;;
5587;SDS011;2816;49.778;9.986;2023-05-07T05:37:57;8.10;;;6.73;;
5587;SDS011;2816;49.778;9.986;2023-05-07T05:40:26;7.67;;;6.73;;
5587;SDS011;2816;49.778;9.986;2023-05-07T05:42:52;8.10;;;6.53;;
5587;SDS011;2816;49.778;9.986;2023-05-07T05:45:19;7.80;;;6.83;;
5587;SDS011;2816;49.778;9.986;2023-05-07T05:47:46;8.77;;;6.80;;
5587;SDS011;2816;49.778;9.986;2023-05-07T05:50:13;6.67;;;5.97;;
5587;SDS011;2816;49.778;9.986;2023-05-07T05:52:40;7.47;;;6.77;;
5587;SDS011;2816;49.778;9.986;2023-05-07T05:55:07;9.90;;;6.93;;
5587;SDS011;2816;49.778;9.986;2023-05-07T05:57:36;7.70;;;6.90;;
5587;SDS011;2816;49.778;9.986;2023-05-07T06:00:03;8.37;;;7.03;;
5587;SDS011;2816;49.778;9.986;2023-05-07T06:02:31;8.70;;;7.00;;
5587;SDS011;2816;49.778;9.986;2023-05-07T06:04:58;12.50;;;6.80;;
5587;SDS011;2816;49.778;9.986;2023-05-07T06:07:25;7.93;;;6.43;;
5587;SDS011;2816;49.778;9.986;2023-05-07T06:09:52;8.60;;;7.80;;
5587;SDS011;2816;49.778;9.986;2023-05-07T06:12:19;9.00;;;6.80;;
5587;SDS011;2816;49.778;9.986;2023-05-07T06:14:47;9.30;;;7.23;;
5587;SDS011;2816;49.778;9.986;2023-05-07T06:17:14;10.33;;;6.77;;
5587;SDS011;2816;49.778;9.986;2023-05-07T06:19:41;9.13;;;7.50;;
5587;SDS011;2816;49.778;9.986;2023-05-07T06:22:07;12.30;;;7.93;;
5587;SDS011;2816;49.778;9.986;2023-05-07T06:24:34;16.07;;;9.10;;
5587;SDS011;2816;49.778;9.986;2023-05-07T06:27:01;10.30;;;7.40;;
5587;SDS011;2816;49.778;9.986;2023-05-07T06:29:28;8.80;;;7.30;;
5587;SDS011;2816;49.778;9.986;2023-05-07T06:32:03;8.90;;;6.90;;
5587;SDS011;2816;49.778;9.986;2023-05-07T06:34:32;8.33;;;7.20;;
5587;SDS011;2816;49.778;9.986;2023-05-07T06:36:59;10.90;;;7.43;;
5587;SDS011;2816;49.778;9.986;2023-05-07T06:39:26;8.60;;;7.70;;
5587;SDS011;2816;49.778;9.986;2023-05-07T06:41:53;9.70;;;7.30;;
5587;SDS011;2816;49.778;9.986;2023-05-07T06:44:20;8.30;;;7.50;;
5587;SDS011;2816;49.778;9.986;2023-05-07T06:46:47;12.33;;;7.67;;
5587;SDS011;2816;49.778;9.986;2023-05-07T06:49:15;10.00;;;7.23;;
5587;SDS011;2816;49.778;9.986;2023-05-07T06:51:42;6.90;;;6.10;;
5587;SDS011;2816;49.778;9.986;2023-05-07T06:54:09;8.93;;;7.57;;
5587;SDS011;2816;49.778;9.986;2023-05-07T06:56:36;6.10;;;5.50;;
5587;SDS011;2816;49.778;9.986;2023-05-07T06:59:03;9.50;;;6.60;;
5587;SDS011;2816;49.778;9.986;2023-05-07T07:01:30;7.53;;;6.77;;
5587;SDS011;2816;49.778;9.986;2023-05-07T07:03:57;7.87;;;7.10;;
5587;SDS011;2816;49.778;9.986;2023-05-07T07:06:25;9.60;;;7.50;;
5587;SDS011;2816;49.778;9.986;2023-05-07T07:08:52;11.87;;;7.70;;
5587;SDS011;2816;49.778;9.986;2023-05-07T07:11:19;9.57;;;6.97;;
5587;SDS011;2816;49.778;9.986;2023-05-07T07:13:46;14.73;;;7.50;;
5587;SDS011;2816;49.778;9.986;2023-05-07T07:16:13;11.30;;;8.17;;
5587;SDS011;2816;49.778;9.986;2023-05-07T07:18:40;8.53;;;7.73;;
5587;SDS011;2816;49.778;9.986;2023-05-07T07:21:07;9.20;;;7.60;;
5587;SDS011;2816;49.778;9.986;2023-05-07T07:23:35;8.20;;;7.40;;
5587;SDS011;2816;49.778;9.986;2023-05-07T07:26:02;8.97;;;7.70;;
5587;SDS011;2816;49.778;9.986;2023-05-07T07:28:29;8.50;;;7.60;;
5587;SDS011;2816;49.778;9.986;2023-05-07T07:30:56;9.70;;;7.60;;
5587;SDS011;2816;49.778;9.986;2023-05-07T07:33:22;9.73;;;7.97;;
5587;SDS011;2816;49.778;9.986;2023-05-07T07:35:49;10.73;;;8.20;;
5587;SDS011;2816;49.778;9.986;2023-05-07T07:38:16;8.23;;;7.00;;
5587;SDS011;2816;49.778;9.986;2023-05-07T07:40:44;16.23;;;8.03;;
5587;SDS011;2816;49.778;9.986;2023-05-07T07:43:13;9.30;;;7.00;;
5587;SDS011;2816;49.778;9.986;2023-05-07T07:45:40;8.90;;;7.43;;
5587;SDS011;2816;49.778;9.986;2023-05-07T07:48:07;9.57;;;7.53;;
5587;SDS011;2816;49.778;9.986;2023-05-07T07:50:34;8.43;;;7.60;;
5587;SDS011;2816;49.778;9.986;2023-05-07T07:53:01;10.17;;;7.40;;
5587;SDS011;2816;49.778;9.986;2023-05-07T07:55:28;8.13;;;7.33;;
5587;SDS011;2816;49.778;9.986;2023-05-07T07:57:57;6.20;;;5.57;;
5587;SDS011;2816;49.778;9.986;2023-05-07T08:00:24;9.53;;;7.00;;
5587;SDS011;2816;49.778;9.986;2023-05-07T08:02:51;9.93;;;7.27;;
5587;SDS011;2816;49.778;9.986;2023-05-07T08:05:18;8.47;;;7.60;;
5587;SDS011;2816;49.778;9.986;2023-05-07T08:07:45;9.23;;;8.00;;
5587;SDS011;2816;49.778;9.986;2023-05-07T08:10:16;15.07;;;7.37;;
5587;SDS011;2816;49.778;9.986;2023-05-07T08:12:46;7.80;;;6.87;;
5587;SDS011;2816;49.778;9.986;2023-05-07T08:15:15;7.57;;;6.77;;
5587;SDS011;2816;49.778;9.986;2023-05-07T08:17:42;6.70;;;5.90;;
5587;SDS011;2816;49.778;9.986;2023-05-07T08:20:10;9.17;;;6.70;;
5587;SDS011;2816;49.778;9.986;2023-05-07T08:22:36;9.20;;;6.63;;
5587;SDS011;2816;49.778;9.986;2023-05-07T08:25:04;7.23;;;6.20;;
5587;SDS011;2816;49.778;9.986;2023-05-07T08:27:31;9.17;;;6.70;;
5587;SDS011;2816;49.778;9.986;2023-05-07T08:29:58;9.60;;;6.67;;
5587;SDS011;2816;49.778;9.986;2023-05-07T08:32:26;7.37;;;6.67;;
5587;SDS011;2816;49.778;9.986;2023-05-07T08:34:53;8.00;;;6.40;;
5587;SDS011;2816;49.778;9.986;2023-05-07T08:37:20;7.73;;;6.30;;
5587;SDS011;2816;49.778;9.986;2023-05-07T08:39:47;8.17;;;7.37;;
5587;SDS011;2816;49.778;9.986;2023-05-07T08:42:14;9.57;;;6.30;;
5587;SDS011;2816;49.778;9.986;2023-05-07T08:44:44;14.70;;;6.80;;
5587;SDS011;2816;49.778;9.986;2023-05-07T08:47:12;9.47;;;6.60;;
5587;SDS011;2816;49.778;9.986;2023-05-07T08:49:41;9.90;;;7.90;;
5587;SDS011;2816;49.778;9.986;2023-05-07T08:52:08;8.87;;;7.20;;
5587;SDS011;2816;49.778;9.986;2023-05-07T08:54:36;9.77;;;6.50;;
5587;SDS011;2816;49.778;9.986;2023-05-07T08:57:03;7.70;;;6.90;;
5587;SDS011;2816;49.778;9.986;2023-05-07T08:59:30;7.87;;;6.80;;
5587;SDS011;2816;49.778;9.986;2023-05-07T09:01:57;10.10;;;7.07;;
5587;SDS011;2816;49.778;9.986;2023-05-07T09:04:24;10.20;;;7.67;;
5587;SDS011;2816;49.778;9.986;2023-05-07T09:06:52;7.43;;;6.73;;
5587;SDS011;2816;49.778;9.986;2023-05-07T09:09:21;9.40;;;7.10;;
5587;SDS011;2816;49.778;9.986;2023-05-07T09:11:48;7.40;;;6.67;;
5587;SDS011;2816;49.778;9.986;2023-05-07T09:14:23;12.00;;;6.83;;
5587;SDS011;2816;49.778;9.986;2023-05-07T09:16:51;7.70;;;6.60;;
5587;SDS011;2816;49.778;9.986;2023-05-07T09:19:21;10.67;;;7.60;;
5587;SDS011;2816;49.778;9.986;2023-05-07T09:21:49;12.30;;;7.60;;
5587;SDS011;2816;49.778;9.986;2023-05-07T09:24:17;11.13;;;7.20;;
5587;SDS011;2816;49.778;9.986;2023-05-07T09:26:44;17.00;;;7.30;;
5587;SDS011;2816;49.778;9.986;2023-05-07T09:29:11;7.97;;;6.73;;
5587;SDS011;2816;49.778;9.986;2023-05-07T09:31:38;11.13;;;6.90;;
5587;SDS011;2816;49.778;9.986;2023-05-07T09:34:05;9.90;;;6.00;;
5587;SDS011;2816;49.778;9.986;2023-05-07T09:36:33;8.00;;;6.40;;
5587;SDS011;2816;49.778;9.986;2023-05-07T09:39:01;9.10;;;7.50;;
5587;SDS011;2816;49.778;9.986;2023-05-07T09:41:29;7.77;;;6.70;;
5587;SDS011;2816;49.778;9.986;2023-05-07T09:43:56;8.73;;;7.10;;
5587;SDS011;2816;49.778;9.986;2023-05-07T09:46:27;7.50;;;6.80;;
5587;SDS011;2816;49.778;9.986;2023-05-07T09:48:56;7.07;;;6.33;;
5587;SDS011;2816;49.778;9.986;2023-05-07T09:51:25;8.80;;;7.03;;
5587;SDS011;2816;49.778;9.986;2023-05-07T09:53:56;8.13;;;6.70;;
5587;SDS011;2816;49.778;9.986;2023-05-07T09:56:25;7.67;;;6.50;;
5587;SDS011;2816;49.778;9.986;2023-05-07T09:58:54;7.03;;;6.33;;
5587;SDS011;2816;49.778;9.986;2023-05-07T10:01:23;7.60;;;6.40;;
5587;SDS011;2816;49.778;9.986;2023-05-07T10:03:52;8.20;;;6.70;;
5587;SDS011;2816;49.778;9.986;2023-05-07T10:06:20;8.67;;;6.57;;
5587;SDS011;2816;49.778;9.986;2023-05-07T10:08:48;10.63;;;6.53;;
5587;SDS011;2816;49.778;9.986;2023-05-07T10:11:16;9.07;;;7.10;;
5587;SDS011;2816;49.778;9.986;2023-05-07T10:13:44;17.93;;;7.40;;
5587;SDS011;2816;49.778;9.986;2023-05-07T10:16:15;6.83;;;6.13;;
5587;SDS011;2816;49.778;9.986;2023-05-07T10:18:43;7.50;;;5.73;;
5587;SDS011;2816;49.778;9.986;2023-05-07T10:21:11;8.37;;;6.00;;
5587;SDS011;2816;49.778;9.986;2023-05-07T10:23:42;13.03;;;6.07;;
5587;SDS011;2816;49.778;9.986;2023-05-07T10:26:11;6.00;;;5.40;;
5587;SDS011;2816;49.778;9.986;2023-05-07T10:28:41;7.50;;;6.30;;
5587;SDS011;2816;49.778;9.986;2023-05-07T10:31:23;5.90;;;5.03;;
5587;SDS011;2816;49.778;9.986;2023-05-07T10:34:02;7.50;;;6.53;;
5587;SDS011;2816;49.778;9.986;2023-05-07T10:36:36;8.03;;;5.80;;
5587;SDS011;2816;49.778;9.986;2023-05-07T10:39:04;7.93;;;6.33;;
5587;SDS011;2816;49.778;9.986;2023-05-07T10:41:32;8.27;;;5.63;;
5587;SDS011;2816;49.778;9.986;2023-05-07T10:43:59;5.90;;;5.37;;
5587;SDS011;2816;49.778;9.986;2023-05-07T10:46:28;11.43;;;5.80;;
5587;SDS011;2816;49.778;9.986;2023-05-07T10:49:08;8.67;;;6.03;;
5587;SDS011;2816;49.778;9.986;2023-05-07T10:51:36;5.80;;;5.17;;
5587;SDS011;2816;49.778;9.986;2023-05-07T10:54:22;6.57;;;5.97;;
5587;SDS011;2816;49.778;9.986;2023-05-07T10:56:49;7.83;;;5.43;;
5587;SDS011;2816;49.778;9.986;2023-05-07T10:59:30;5.93;;;5.17;;
5587;SDS011;2816;49.778;9.986;2023-05-07T11:02:08;5.37;;;4.73;;
5587;SDS011;2816;49.778;9.986;2023-05-07T11:04:36;5.57;;;4.63;;
5587;SDS011;2816;49.778;9.986;2023-05-07T11:09:56;5.80;;;4.67;;
5587;SDS011;2816;49.778;9.986;2023-05-07T11:15:34;5.83;;;4.63;;
5587;SDS011;2816;49.778;9.986;2023-05-07T11:18:04;8.60;;;5.20;;
5587;SDS011;2816;49.778;9.986;2023-05-07T11:20:44;6.30;;;5.60;;
5587;SDS011;2816;49.778;9.986;2023-05-07T11:26:47;5.03;;;4.50;;
5587;SDS011;2816;49.778;9.986;2023-05-07T11:29:15;5.47;;;4.43;;
5587;SDS011;2816;49.778;9.986;2023-05-07T11:31:44;6.80;;;4.60;;
5587;SDS011;2816;49.778;9.986;2023-05-07T11:34:16;8.00;;;4.90;;
5587;SDS011;2816;49.778;9.986;2023-05-07T11:36:47;6.10;;;4.27;;
5587;SDS011;2816;49.778;9.986;2023-05-07T11:39:25;6.10;;;4.83;;
5587;SDS011;2816;49.778;9.986;2023-05-07T11:41:53;4.80;;;4.40;;
5587;SDS011;2816;49.778;9.986;2023-05-07T11:44:20;7.47;;;4.87;;
5587;SDS011;2816;49.778;9.986;2023-05-07T11:46:47;6.60;;;4.50;;
5587;SDS011;2816;49.778;9.986;2023-05-07T11:49:15;6.40;;;4.67;;
5587;SDS011;2816;49.778;9.986;2023-05-07T11:51:43;4.90;;;4.37;;
5587;SDS011;2816;49.778;9.986;2023-05-07T11:54:11;5.47;;;4.20;;
5587;SDS011;2816;49.778;9.986;2023-05-07T11:56:43;5.43;;;4.17;;
5587;SDS011;2816;49.778;9.986;2023-05-07T11:59:11;4.50;;;4.10;;
5587;SDS011;2816;49.778;9.986;2023-05-07T12:01:38;4.60;;;3.90;;
5587;SDS011;2816;49.778;9.986;2023-05-07T12:04:05;7.70;;;4.40;;
5587;SDS011;2816;49.778;9.986;2023-05-07T12:06:35;3.97;;;3.60;;
5587;SDS011;2816;49.778;9.986;2023-05-07T12:09:02;4.97;;;3.80;;
5587;SDS011;2816;49.778;9.986;2023-05-07T12:11:32;5.37;;;3.60;;
5587;SDS011;2816;49.778;9.986;2023-05-07T12:13:59;3.60;;;3.30;;
5587;SDS011;2816;49.778;9.986;2023-05-07T12:16:26;3.50;;;3.20;;
5587;SDS011;2816;49.778;9.986;2023-05-07T12:18:53;3.90;;;3.50;;
5587;SDS011;2816;49.778;9.986;2023-05-07T12:21:21;4.90;;;3.93;;
5587;SDS011;2816;49.778;9.986;2023-05-07T12:23:49;3.90;;;3.20;;
5587;SDS011;2816;49.778;9.986;2023-05-07T12:26:17;6.70;;;3.73;;
5587;SDS011;2816;49.778;9.986;2023-05-07T12:28:45;6.00;;;2.90;;
5587;SDS011;2816;49.778;9.986;2023-05-07T12:31:13;3.80;;;3.40;;
5587;SDS011;2816;49.778;9.986;2023-05-07T12:33:41;4.43;;;3.40;;
5587;SDS011;2816;49.778;9.986;2023-05-07T12:36:08;4.20;;;3.30;;
5587;SDS011;2816;49.778;9.986;2023-05-07T12:38:38;4.93;;;2.97;;
5587;SDS011;2816;49.778;9.986;2023-05-07T12:41:08;3.87;;;2.80;;
5587;SDS011;2816;49.778;9.986;2023-05-07T12:43:36;7.10;;;3.10;;
5587;SDS011;2816;49.778;9.986;2023-05-07T12:46:04;5.07;;;3.00;;
5587;SDS011;2816;49.778;9.986;2023-05-07T12:48:32;3.07;;;2.77;;
5587;SDS011;2816;49.778;9.986;2023-05-07T12:51:00;9.60;;;2.77;;
5587;SDS011;2816;49.778;9.986;2023-05-07T12:53:27;4.80;;;2.70;;
5587;SDS011;2816;49.778;9.986;2023-05-07T12:55:56;3.10;;;2.80;;
5587;SDS011;2816;49.778;9.986;2023-05-07T12:58:26;3.23;;;2.50;;
5587;SDS011;2816;49.778;9.986;2023-05-07T13:00:54;3.47;;;2.30;;
5587;SDS011;2816;49.778;9.986;2023-05-07T13:03:24;3.70;;;2.80;;
5587;SDS011;2816;49.778;9.986;2023-05-07T13:05:52;2.93;;;2.73;;
5587;SDS011;2816;49.778;9.986;2023-05-07T13:08:23;4.70;;;2.70;;
5587;SDS011;2816;49.778;9.986;2023-05-07T13:10:51;3.73;;;2.57;;
5587;SDS011;2816;49.778;9.986;2023-05-07T13:13:18;3.33;;;2.43;;
5587;SDS011;2816;49.778;9.986;2023-05-07T13:15:46;15.63;;;3.27;;
5587;SDS011;2816;49.778;9.986;2023-05-07T13:18:13;2.77;;;2.40;;
5587;SDS011;2816;49.778;9.986;2023-05-07T13:20:40;2.60;;;2.23;;
5587;SDS011;2816;49.778;9.986;2023-05-07T13:23:07;2.67;;;2.40;;
5587;SDS011;2816;49.778;9.986;2023-05-07T13:25:34;2.40;;;2.20;;
5587;SDS011;2816;49.778;9.986;2023-05-07T13:28:01;2.50;;;1.77;;
5587;SDS011;2816;49.778;9.986;2023-05-07T13:30:29;6.63;;;2.00;;
5587;SDS011;2816;49.778;9.986;2023-05-07T13:32:57;2.97;;;2.13;;
5587;SDS011;2816;49.778;9.986;2023-05-07T13:35:24;2.27;;;2.07;;
5587;SDS011;2816;49.778;9.986;2023-05-07T13:37:51;2.10;;;1.93;;
5587;SDS011;2816;49.778;9.986;2023-05-07T13:40:19;2.30;;;2.10;;
5587;SDS011;2816;49.778;9.986;2023-05-07T13:42:46;2.50;;;2.30;;
5587;SDS011;2816;49.778;9.986;2023-05-07T13:45:13;4.30;;;2.37;;
5587;SDS011;2816;49.778;9.986;2023-05-07T13:47:40;2.20;;;2.00;;
5587;SDS011;2816;49.778;9.986;2023-05-07T13:50:10;2.60;;;2.17;;
5587;SDS011;2816;49.778;9.986;2023-05-07T13:52:39;2.83;;;2.50;;
5587;SDS011;2816;49.778;9.986;2023-05-07T13:55:08;2.07;;;1.97;;
5587;SDS011;2816;49.778;9.986;2023-05-07T13:57:35;2.37;;;2.17;;
5587;SDS011;2816;49.778;9.986;2023-05-07T14:00:03;2.50;;;2.30;;
5587;SDS011;2816;49.778;9.986;2023-05-07T14:02:31;3.37;;;2.30;;
5587;SDS011;2816;49.778;9.986;2023-05-07T14:04:58;2.67;;;2.30;;
5587;SDS011;2816;49.778;9.986;2023-05-07T14:07:26;2.60;;;2.00;;
5587;SDS011;2816;49.778;9.986;2023-05-07T14:09:53;2.20;;;2.00;;
5587;SDS011;2816;49.778;9.986;2023-05-07T14:12:20;2.40;;;2.20;;
5587;SDS011;2816;49.778;9.986;2023-05-07T14:14:47;8.73;;;2.63;;
5587;SDS011;2816;49.778;9.986;2023-05-07T14:17:15;3.27;;;2.60;;
5587;SDS011;2816;49.778;9.986;2023-05-07T14:19:42;7.00;;;2.37;;
5587;SDS011;2816;49.778;9.986;2023-05-07T14:22:09;2.43;;;2.17;;
5587;SDS011;2816;49.778;9.986;2023-05-07T14:24:37;2.47;;;2.27;;
5587;SDS011;2816;49.778;9.986;2023-05-07T14:27:04;2.47;;;2.27;;
5587;SDS011;2816;49.778;9.986;2023-05-07T14:29:31;2.10;;;2.00;;
5587;SDS011;2816;49.778;9.986;2023-05-07T14:32:00;2.50;;;2.30;;
5587;SDS011;2816;49.778;9.986;2023-05-07T14:34:27;7.43;;;2.40;;
5587;SDS011;2816;49.778;9.986;2023-05-07T14:36:54;2.90;;;2.10;;
5587;SDS011;2816;49.778;9.986;2023-05-07T14:39:21;2.07;;;1.97;;
5587;SDS011;2816;49.778;9.986;2023-05-07T14:41:49;17.03;;;2.27;;
5587;SDS011;2816;49.778;9.986;2023-05-07T14:44:16;4.03;;;2.50;;
5587;SDS011;2816;49.778;9.986;2023-05-07T14:46:43;5.10;;;3.43;;
5587;SDS011;2816;49.778;9.986;2023-05-07T14:49:10;2.93;;;2.70;;
5587;SDS011;2816;49.778;9.986;2023-05-07T14:51:42;2.57;;;2.43;;
5587;SDS011;2816;49.778;9.986;2023-05-07T14:54:09;3.40;;;2.90;;
5587;SDS011;2816;49.778;9.986;2023-05-07T14:56:36;2.50;;;2.30;;
5587;SDS011;2816;49.778;9.986;2023-05-07T14:59:04;3.20;;;2.90;;
5587;SDS011;2816;49.778;9.986;2023-05-07T15:01:31;2.97;;;2.67;;
5587;SDS011;2816;49.778;9.986;2023-05-07T15:04:00;3.00;;;2.60;;
5587;SDS011;2816;49.778;9.986;2023-05-07T15:06:26;2.97;;;2.77;;
5587;SDS011;2816;49.778;9.986;2023-05-07T15:08:54;4.43;;;2.63;;
5587;SDS011;2816;49.778;9.986;2023-05-07T15:11:21;3.30;;;2.90;;
5587;SDS011;2816;49.778;9.986;2023-05-07T15:13:48;3.33;;;3.03;;
5587;SDS011;2816;49.778;9.986;2023-05-07T15:16:17;8.00;;;3.30;;
5587;SDS011;2816;49.778;9.986;2023-05-07T15:18:44;3.30;;;3.00;;
5587;SDS011;2816;49.778;9.986;2023-05-07T15:21:11;3.37;;;2.77;;
5587;SDS011;2816;49.778;9.986;2023-05-07T15:23:38;3.37;;;3.07;;
5587;SDS011;2816;49.778;9.986;2023-05-07T15:26:06;4.43;;;3.00;;
5587;SDS011;2816;49.778;9.986;2023-05-07T15:28:33;5.00;;;2.60;;